sensor_id;sensor_type;location;lat;lon;timestamp;P1;durP1;ratioP1;P2;durP2;ratioP2
30173;SDS011;16985;50.814;8.530;2023-11-21T00:00:03;9.63;;;4.35;;
30173;SDS011;16985;50.814;8.530;2023-11-21T00:02:38;5.88;;;4.55;;
30173;SDS011;16985;50.814;8.530;2023-11-21T00:05:10;14.82;;;6.03;;
30173;SDS011;16985;50.814;8.530;2023-11-21T00:07:39;6.30;;;4.95;;
30173;SDS011;16985;50.814;8.530;2023-11-21T00:10:11;8.18;;;4.70;;
30173;SDS011;16985;50.814;8.530;2023-11-21T00:12:41;7.75;;;5.07;;
30173;SDS011;16985;50.814;8.530;2023-11-21T00:15:08;8.52;;;5.63;;
30173;SDS011;16985;50.814;8.530;2023-11-21T00:17:37;7.78;;;5.25;;
30173;SDS011;16985;50.814;8.530;2023-11-21T00:20:07;7.75;;;5.78;;
30173;SDS011;16985;50.814;8.530;2023-11-21T00:22:38;10.48;;;7.55;;
30173;SDS011;16985;50.814;8.530;2023-11-21T00:25:06;14.40;;;6.40;;
30173;SDS011;16985;50.814;8.530;2023-11-21T00:27:34;11.77;;;6.27;;
30173;SDS011;16985;50.814;8.530;2023-11-21T00:30:01;11.50;;;6.88;;
30173;SDS011;16985;50.814;8.530;2023-11-21T00:32:29;10.10;;;6.60;;
30173;SDS011;16985;50.814;8.530;2023-11-21T00:34:57;11.35;;;6.18;;
30173;SDS011;16985;50.814;8.530;2023-11-21T00:37:23;10.75;;;6.32;;
30173;SDS011;16985;50.814;8.530;2023-11-21T00:39:50;9.40;;;6.85;;
30173;SDS011;16985;50.814;8.530;2023-11-21T00:42:15;11.02;;;6.85;;
30173;SDS011;16985;50.814;8.530;2023-11-21T00:44:41;10.80;;;6.25;;
30173;SDS011;16985;50.814;8.530;2023-11-21T00:47:07;10.55;;;6.30;;
30173;SDS011;16985;50.814;8.530;2023-11-21T00:49:33;10.52;;;6.07;;
30173;SDS011;16985;50.814;8.530;2023-11-21T00:51:59;12.70;;;6.80;;
30173;SDS011;16985;50.814;8.530;2023-11-21T00:54:26;7.95;;;5.97;;
30173;SDS011;16985;50.814;8.530;2023-11-21T00:56:53;12.82;;;6.00;;
30173;SDS011;16985;50.814;8.530;2023-11-21T00:59:19;10.88;;;6.05;;
30173;SDS011;16985;50.814;8.530;2023-11-21T01:01:45;8.10;;;6.03;;
30173;SDS011;16985;50.814;8.530;2023-11-21T01:04:11;12.93;;;6.18;;
30173;SDS011;16985;50.814;8.530;2023-11-21T01:06:38;11.27;;;6.28;;
30173;SDS011;16985;50.814;8.530;2023-11-21T01:09:04;9.10;;;6.05;;
30173;SDS011;16985;50.814;8.530;2023-11-21T01:11:34;9.90;;;6.80;;
30173;SDS011;16985;50.814;8.530;2023-11-21T01:14:02;12.95;;;7.13;;
30173;SDS011;16985;50.814;8.530;2023-11-21T01:16:30;7.47;;;5.70;;
30173;SDS011;16985;50.814;8.530;2023-11-21T01:18:58;12.35;;;6.70;;
30173;SDS011;16985;50.814;8.530;2023-11-21T01:21:25;8.70;;;6.03;;
30173;SDS011;16985;50.814;8.530;2023-11-21T01:23:51;9.15;;;6.57;;
30173;SDS011;16985;50.814;8.530;2023-11-21T01:26:17;12.45;;;6.53;;
30173;SDS011;16985;50.814;8.530;2023-11-21T01:28:42;11.20;;;7.22;;
30173;SDS011;16985;50.814;8.530;2023-11-21T01:31:08;9.80;;;6.53;;
30173;SDS011;16985;50.814;8.530;2023-11-21T01:33:34;10.68;;;6.75;;
30173;SDS011;16985;50.814;8.530;2023-11-21T01:36:00;12.10;;;6.93;;
30173;SDS011;16985;50.814;8.530;2023-11-21T01:38:26;11.48;;;7.45;;
30173;SDS011;16985;50.814;8.530;2023-11-21T01:40:52;12.73;;;7.88;;
30173;SDS011;16985;50.814;8.530;2023-11-21T01:43:18;14.25;;;8.23;;
30173;SDS011;16985;50.814;8.530;2023-11-21T01:45:43;13.07;;;9.07;;
30173;SDS011;16985;50.814;8.530;2023-11-21T01:50:38;12.88;;;8.35;;
30173;SDS011;16985;50.814;8.530;2023-11-21T01:53:04;11.15;;;7.55;;
30173;SDS011;16985;50.814;8.530;2023-11-21T01:55:31;14.93;;;8.50;;
30173;SDS011;16985;50.814;8.530;2023-11-21T01:57:59;19.42;;;9.15;;
30173;SDS011;16985;50.814;8.530;2023-11-21T02:00:25;18.35;;;9.73;;
30173;SDS011;16985;50.814;8.530;2023-11-21T02:02:51;17.55;;;8.75;;
30173;SDS011;16985;50.814;8.530;2023-11-21T02:05:19;14.05;;;8.15;;
30173;SDS011;16985;50.814;8.530;2023-11-21T02:07:47;15.13;;;8.30;;
30173;SDS011;16985;50.814;8.530;2023-11-21T02:10:14;15.57;;;9.07;;
30173;SDS011;16985;50.814;8.530;2023-11-21T02:12:41;14.90;;;8.50;;
30173;SDS011;16985;50.814;8.530;2023-11-21T02:15:08;16.98;;;9.15;;
30173;SDS011;16985;50.814;8.530;2023-11-21T02:17:45;14.70;;;9.47;;
30173;SDS011;16985;50.814;8.530;2023-11-21T02:20:19;15.57;;;9.10;;
30173;SDS011;16985;50.814;8.530;2023-11-21T02:22:51;12.68;;;8.48;;
30173;SDS011;16985;50.814;8.530;2023-11-21T02:25:26;14.60;;;8.77;;
30173;SDS011;16985;50.814;8.530;2023-11-21T02:27:57;16.23;;;9.85;;
30173;SDS011;16985;50.814;8.530;2023-11-21T02:30:26;14.43;;;9.25;;
30173;SDS011;16985;50.814;8.530;2023-11-21T02:32:58;14.73;;;9.48;;
30173;SDS011;16985;50.814;8.530;2023-11-21T02:35:25;13.05;;;8.50;;
30173;SDS011;16985;50.814;8.530;2023-11-21T02:37:52;17.33;;;9.35;;
30173;SDS011;16985;50.814;8.530;2023-11-21T02:40:19;13.52;;;9.15;;
30173;SDS011;16985;50.814;8.530;2023-11-21T02:42:50;14.07;;;9.45;;
30173;SDS011;16985;50.814;8.530;2023-11-21T02:45:16;20.15;;;9.55;;
30173;SDS011;16985;50.814;8.530;2023-11-21T02:47:45;17.75;;;9.15;;
30173;SDS011;16985;50.814;8.530;2023-11-21T02:50:13;18.80;;;10.00;;
30173;SDS011;16985;50.814;8.530;2023-11-21T02:52:39;15.35;;;8.48;;
30173;SDS011;16985;50.814;8.530;2023-11-21T02:55:05;14.07;;;8.98;;
30173;SDS011;16985;50.814;8.530;2023-11-21T02:57:34;14.35;;;8.60;;
30173;SDS011;16985;50.814;8.530;2023-11-21T03:00:00;14.13;;;8.68;;
30173;SDS011;16985;50.814;8.530;2023-11-21T03:02:27;14.40;;;8.63;;
30173;SDS011;16985;50.814;8.530;2023-11-21T03:04:53;17.55;;;9.05;;
30173;SDS011;16985;50.814;8.530;2023-11-21T03:07:19;14.65;;;8.23;;
30173;SDS011;16985;50.814;8.530;2023-11-21T03:09:45;15.40;;;8.38;;
30173;SDS011;16985;50.814;8.530;2023-11-21T03:12:11;17.77;;;10.43;;
30173;SDS011;16985;50.814;8.530;2023-11-21T03:14:41;13.07;;;8.70;;
30173;SDS011;16985;50.814;8.530;2023-11-21T03:17:06;15.43;;;8.52;;
30173;SDS011;16985;50.814;8.530;2023-11-21T03:19:32;16.00;;;9.25;;
30173;SDS011;16985;50.814;8.530;2023-11-21T03:21:58;12.63;;;8.73;;
30173;SDS011;16985;50.814;8.530;2023-11-21T03:24:24;13.18;;;8.73;;
30173;SDS011;16985;50.814;8.530;2023-11-21T03:26:51;15.18;;;8.82;;
30173;SDS011;16985;50.814;8.530;2023-11-21T03:29:17;13.23;;;8.27;;
30173;SDS011;16985;50.814;8.530;2023-11-21T03:31:43;14.00;;;8.00;;
30173;SDS011;16985;50.814;8.530;2023-11-21T03:34:15;11.75;;;7.63;;
30173;SDS011;16985;50.814;8.530;2023-11-21T03:36:51;16.35;;;8.98;;
30173;SDS011;16985;50.814;8.530;2023-11-21T03:39:18;13.25;;;7.60;;
30173;SDS011;16985;50.814;8.530;2023-11-21T03:41:48;13.30;;;7.47;;
30173;SDS011;16985;50.814;8.530;2023-11-21T03:44:15;11.38;;;7.28;;
30173;SDS011;16985;50.814;8.530;2023-11-21T03:46:41;12.65;;;7.65;;
30173;SDS011;16985;50.814;8.530;2023-11-21T03:49:09;12.73;;;8.55;;
30173;SDS011;16985;50.814;8.530;2023-11-21T03:51:36;12.02;;;7.70;;
30173;SDS011;16985;50.814;8.530;2023-11-21T03:54:03;12.23;;;7.35;;
30173;SDS011;16985;50.814;8.530;2023-11-21T03:56:29;13.85;;;7.60;;
30173;SDS011;16985;50.814;8.530;2023-11-21T03:58:55;12.88;;;6.57;;
30173;SDS011;16985;50.814;8.530;2023-11-21T04:01:21;13.57;;;6.75;;
30173;SDS011;16985;50.814;8.530;2023-11-21T04:03:48;10.00;;;6.43;;
30173;SDS011;16985;50.814;8.530;2023-11-21T04:06:15;14.13;;;7.07;;
30173;SDS011;16985;50.814;8.530;2023-11-21T04:08:43;11.07;;;7.30;;
30173;SDS011;16985;50.814;8.530;2023-11-21T04:11:10;10.38;;;6.22;;
30173;SDS011;16985;50.814;8.530;2023-11-21T04:13:39;12.43;;;7.45;;
30173;SDS011;16985;50.814;8.530;2023-11-21T04:16:06;11.00;;;7.43;;
30173;SDS011;16985;50.814;8.530;2023-11-21T04:18:33;10.93;;;7.47;;
30173;SDS011;16985;50.814;8.530;2023-11-21T04:21:01;13.30;;;7.53;;
30173;SDS011;16985;50.814;8.530;2023-11-21T04:23:28;14.73;;;7.72;;
30173;SDS011;16985;50.814;8.530;2023-11-21T04:25:56;11.02;;;7.35;;
30173;SDS011;16985;50.814;8.530;2023-11-21T04:28:23;11.63;;;7.30;;
30173;SDS011;16985;50.814;8.530;2023-11-21T04:30:51;15.52;;;6.80;;
30173;SDS011;16985;50.814;8.530;2023-11-21T04:33:17;11.65;;;7.05;;
30173;SDS011;16985;50.814;8.530;2023-11-21T04:35:44;11.40;;;7.43;;
30173;SDS011;16985;50.814;8.530;2023-11-21T04:38:10;11.40;;;7.20;;
30173;SDS011;16985;50.814;8.530;2023-11-21T04:40:36;12.90;;;7.45;;
30173;SDS011;16985;50.814;8.530;2023-11-21T04:43:02;11.75;;;7.28;;
30173;SDS011;16985;50.814;8.530;2023-11-21T04:45:29;11.90;;;7.10;;
30173;SDS011;16985;50.814;8.530;2023-11-21T04:47:55;12.25;;;7.53;;
30173;SDS011;16985;50.814;8.530;2023-11-21T04:50:21;17.13;;;8.52;;
30173;SDS011;16985;50.814;8.530;2023-11-21T04:52:47;13.15;;;7.53;;
30173;SDS011;16985;50.814;8.530;2023-11-21T04:55:13;17.30;;;8.10;;
30173;SDS011;16985;50.814;8.530;2023-11-21T04:57:40;12.13;;;8.10;;
30173;SDS011;16985;50.814;8.530;2023-11-21T05:00:07;11.98;;;7.75;;
30173;SDS011;16985;50.814;8.530;2023-11-21T05:02:34;14.45;;;7.80;;
30173;SDS011;16985;50.814;8.530;2023-11-21T05:05:01;14.65;;;8.82;;
30173;SDS011;16985;50.814;8.530;2023-11-21T05:07:27;15.70;;;8.98;;
30173;SDS011;16985;50.814;8.530;2023-11-21T05:09:54;19.60;;;9.18;;
30173;SDS011;16985;50.814;8.530;2023-11-21T05:12:21;19.48;;;8.70;;
30173;SDS011;16985;50.814;8.530;2023-11-21T05:14:48;23.08;;;8.93;;
30173;SDS011;16985;50.814;8.530;2023-11-21T05:17:15;16.02;;;8.77;;
30173;SDS011;16985;50.814;8.530;2023-11-21T05:19:41;18.38;;;9.68;;
30173;SDS011;16985;50.814;8.530;2023-11-21T05:22:08;18.58;;;9.50;;
30173;SDS011;16985;50.814;8.530;2023-11-21T05:24:34;17.67;;;9.55;;
30173;SDS011;16985;50.814;8.530;2023-11-21T05:27:00;17.55;;;9.38;;
30173;SDS011;16985;50.814;8.530;2023-11-21T05:29:26;15.00;;;8.23;;
30173;SDS011;16985;50.814;8.530;2023-11-21T05:31:52;20.40;;;10.38;;
30173;SDS011;16985;50.814;8.530;2023-11-21T05:34:18;19.63;;;8.95;;
30173;SDS011;16985;50.814;8.530;2023-11-21T05:36:45;17.43;;;9.70;;
30173;SDS011;16985;50.814;8.530;2023-11-21T05:39:11;16.90;;;10.15;;
30173;SDS011;16985;50.814;8.530;2023-11-21T05:41:39;17.55;;;8.98;;
30173;SDS011;16985;50.814;8.530;2023-11-21T05:44:05;15.73;;;9.15;;
30173;SDS011;16985;50.814;8.530;2023-11-21T05:46:31;17.58;;;9.68;;
30173;SDS011;16985;50.814;8.530;2023-11-21T05:48:57;21.80;;;11.00;;
30173;SDS011;16985;50.814;8.530;2023-11-21T05:51:22;18.45;;;9.73;;
30173;SDS011;16985;50.814;8.530;2023-11-21T05:53:48;16.95;;;9.30;;
30173;SDS011;16985;50.814;8.530;2023-11-21T05:56:14;19.00;;;10.55;;
30173;SDS011;16985;50.814;8.530;2023-11-21T05:58:40;17.27;;;9.52;;
30173;SDS011;16985;50.814;8.530;2023-11-21T06:01:07;18.50;;;9.95;;
30173;SDS011;16985;50.814;8.530;2023-11-21T06:03:34;17.57;;;9.30;;
30173;SDS011;16985;50.814;8.530;2023-11-21T06:06:00;23.48;;;10.70;;
30173;SDS011;16985;50.814;8.530;2023-11-21T06:08:26;23.42;;;9.95;;
30173;SDS011;16985;50.814;8.530;2023-11-21T06:10:52;19.63;;;11.93;;
30173;SDS011;16985;50.814;8.530;2023-11-21T06:13:18;18.02;;;9.98;;
30173;SDS011;16985;50.814;8.530;2023-11-21T06:15:49;22.77;;;10.60;;
30173;SDS011;16985;50.814;8.530;2023-11-21T06:18:16;20.95;;;10.20;;
30173;SDS011;16985;50.814;8.530;2023-11-21T06:23:11;19.98;;;10.05;;
30173;SDS011;16985;50.814;8.530;2023-11-21T06:25:37;19.00;;;10.30;;
30173;SDS011;16985;50.814;8.530;2023-11-21T06:28:04;26.40;;;11.23;;
30173;SDS011;16985;50.814;8.530;2023-11-21T06:30:30;21.58;;;11.45;;
30173;SDS011;16985;50.814;8.530;2023-11-21T06:32:56;20.50;;;11.43;;
30173;SDS011;16985;50.814;8.530;2023-11-21T06:35:22;23.02;;;12.18;;
30173;SDS011;16985;50.814;8.530;2023-11-21T06:37:48;31.35;;;11.88;;
30173;SDS011;16985;50.814;8.530;2023-11-21T06:40:14;22.52;;;10.85;;
30173;SDS011;16985;50.814;8.530;2023-11-21T06:42:40;25.33;;;12.07;;
30173;SDS011;16985;50.814;8.530;2023-11-21T06:45:07;24.67;;;11.32;;
30173;SDS011;16985;50.814;8.530;2023-11-21T06:47:36;23.88;;;12.52;;
30173;SDS011;16985;50.814;8.530;2023-11-21T06:50:03;24.48;;;13.63;;
30173;SDS011;16985;50.814;8.530;2023-11-21T06:52:29;23.90;;;12.95;;
30173;SDS011;16985;50.814;8.530;2023-11-21T06:54:55;27.48;;;12.85;;
30173;SDS011;16985;50.814;8.530;2023-11-21T06:57:24;22.48;;;12.10;;
30173;SDS011;16985;50.814;8.530;2023-11-21T06:59:51;22.70;;;12.30;;
30173;SDS011;16985;50.814;8.530;2023-11-21T07:02:16;25.90;;;13.95;;
30173;SDS011;16985;50.814;8.530;2023-11-21T07:04:46;26.15;;;13.38;;
30173;SDS011;16985;50.814;8.530;2023-11-21T07:07:12;27.77;;;14.85;;
30173;SDS011;16985;50.814;8.530;2023-11-21T07:09:38;24.85;;;13.25;;
30173;SDS011;16985;50.814;8.530;2023-11-21T07:12:04;25.98;;;13.50;;
30173;SDS011;16985;50.814;8.530;2023-11-21T07:14:33;24.48;;;12.20;;
30173;SDS011;16985;50.814;8.530;2023-11-21T07:16:59;26.35;;;12.90;;
30173;SDS011;16985;50.814;8.530;2023-11-21T07:19:25;22.98;;;12.05;;
30173;SDS011;16985;50.814;8.530;2023-11-21T07:21:51;22.80;;;12.57;;
30173;SDS011;16985;50.814;8.530;2023-11-21T07:24:17;22.52;;;11.93;;
30173;SDS011;16985;50.814;8.530;2023-11-21T07:26:43;24.63;;;13.38;;
30173;SDS011;16985;50.814;8.530;2023-11-21T07:29:09;21.33;;;12.90;;
30173;SDS011;16985;50.814;8.530;2023-11-21T07:31:37;24.15;;;12.20;;
30173;SDS011;16985;50.814;8.530;2023-11-21T07:34:03;21.00;;;12.45;;
30173;SDS011;16985;50.814;8.530;2023-11-21T07:36:29;21.15;;;12.13;;
30173;SDS011;16985;50.814;8.530;2023-11-21T07:38:55;23.52;;;11.55;;
30173;SDS011;16985;50.814;8.530;2023-11-21T07:41:21;18.10;;;11.73;;
30173;SDS011;16985;50.814;8.530;2023-11-21T07:43:47;22.63;;;11.48;;
30173;SDS011;16985;50.814;8.530;2023-11-21T07:46:13;18.30;;;11.10;;
30173;SDS011;16985;50.814;8.530;2023-11-21T07:48:40;18.40;;;11.02;;
30173;SDS011;16985;50.814;8.530;2023-11-21T07:51:07;19.08;;;10.93;;
30173;SDS011;16985;50.814;8.530;2023-11-21T07:53:35;19.50;;;10.68;;
30173;SDS011;16985;50.814;8.530;2023-11-21T07:56:05;17.67;;;10.38;;
30173;SDS011;16985;50.814;8.530;2023-11-21T07:58:33;17.23;;;9.63;;
30173;SDS011;16985;50.814;8.530;2023-11-21T08:01:00;21.57;;;11.10;;
30173;SDS011;16985;50.814;8.530;2023-11-21T08:03:30;22.52;;;11.15;;
30173;SDS011;16985;50.814;8.530;2023-11-21T08:05:56;18.08;;;10.05;;
30173;SDS011;16985;50.814;8.530;2023-11-21T08:08:23;21.38;;;11.40;;
30173;SDS011;16985;50.814;8.530;2023-11-21T08:10:49;18.65;;;11.57;;
30173;SDS011;16985;50.814;8.530;2023-11-21T08:13:26;24.48;;;12.20;;
30173;SDS011;16985;50.814;8.530;2023-11-21T08:15:56;24.48;;;13.77;;
30173;SDS011;16985;50.814;8.530;2023-11-21T08:18:27;21.25;;;11.38;;
30173;SDS011;16985;50.814;8.530;2023-11-21T08:20:55;18.90;;;11.38;;
30173;SDS011;16985;50.814;8.530;2023-11-21T08:23:21;22.77;;;12.88;;
30173;SDS011;16985;50.814;8.530;2023-11-21T08:25:51;19.95;;;12.27;;
30173;SDS011;16985;50.814;8.530;2023-11-21T08:28:19;19.80;;;11.15;;
30173;SDS011;16985;50.814;8.530;2023-11-21T08:30:53;16.38;;;10.35;;
30173;SDS011;16985;50.814;8.530;2023-11-21T08:33:19;15.43;;;10.48;;
30173;SDS011;16985;50.814;8.530;2023-11-21T08:35:45;18.33;;;11.52;;
30173;SDS011;16985;50.814;8.530;2023-11-21T08:38:11;16.90;;;10.63;;
30173;SDS011;16985;50.814;8.530;2023-11-21T08:40:38;17.27;;;10.70;;
30173;SDS011;16985;50.814;8.530;2023-11-21T08:43:04;20.73;;;11.32;;
30173;SDS011;16985;50.814;8.530;2023-11-21T08:45:30;24.73;;;11.75;;
30173;SDS011;16985;50.814;8.530;2023-11-21T08:47:59;19.13;;;10.65;;
30173;SDS011;16985;50.814;8.530;2023-11-21T08:50:25;22.88;;;11.07;;
30173;SDS011;16985;50.814;8.530;2023-11-21T08:52:51;21.23;;;11.38;;
30173;SDS011;16985;50.814;8.530;2023-11-21T08:55:17;20.85;;;9.77;;
30173;SDS011;16985;50.814;8.530;2023-11-21T08:57:45;24.17;;;12.23;;
30173;SDS011;16985;50.814;8.530;2023-11-21T09:00:12;19.67;;;9.88;;
30173;SDS011;16985;50.814;8.530;2023-11-21T09:02:42;15.35;;;8.30;;
30173;SDS011;16985;50.814;8.530;2023-11-21T09:05:10;18.83;;;9.60;;
30173;SDS011;16985;50.814;8.530;2023-11-21T09:07:37;20.48;;;10.07;;
30173;SDS011;16985;50.814;8.530;2023-11-21T09:10:06;18.85;;;8.77;;
30173;SDS011;16985;50.814;8.530;2023-11-21T09:12:37;18.70;;;9.80;;
30173;SDS011;16985;50.814;8.530;2023-11-21T09:15:04;15.63;;;8.63;;
30173;SDS011;16985;50.814;8.530;2023-11-21T09:17:32;18.55;;;9.75;;
30173;SDS011;16985;50.814;8.530;2023-11-21T09:19:59;18.75;;;9.20;;
30173;SDS011;16985;50.814;8.530;2023-11-21T09:22:25;18.92;;;9.73;;
30173;SDS011;16985;50.814;8.530;2023-11-21T09:24:52;16.15;;;9.45;;
30173;SDS011;16985;50.814;8.530;2023-11-21T09:27:18;13.27;;;7.82;;
30173;SDS011;16985;50.814;8.530;2023-11-21T09:29:46;17.30;;;9.65;;
30173;SDS011;16985;50.814;8.530;2023-11-21T09:32:12;19.67;;;9.07;;
30173;SDS011;16985;50.814;8.530;2023-11-21T09:34:41;16.27;;;9.98;;
30173;SDS011;16985;50.814;8.530;2023-11-21T09:37:07;18.63;;;10.88;;
30173;SDS011;16985;50.814;8.530;2023-11-21T09:39:34;17.58;;;10.57;;
30173;SDS011;16985;50.814;8.530;2023-11-21T09:42:08;23.95;;;10.95;;
30173;SDS011;16985;50.814;8.530;2023-11-21T09:47:21;21.75;;;10.38;;
30173;SDS011;16985;50.814;8.530;2023-11-21T09:49:48;21.73;;;11.77;;
30173;SDS011;16985;50.814;8.530;2023-11-21T09:52:19;19.70;;;10.30;;
30173;SDS011;16985;50.814;8.530;2023-11-21T09:54:54;21.67;;;11.52;;
30173;SDS011;16985;50.814;8.530;2023-11-21T09:57:24;19.38;;;10.32;;
30173;SDS011;16985;50.814;8.530;2023-11-21T09:59:51;18.67;;;10.05;;
30173;SDS011;16985;50.814;8.530;2023-11-21T10:02:24;23.63;;;10.50;;
30173;SDS011;16985;50.814;8.530;2023-11-21T10:04:58;20.60;;;11.20;;
30173;SDS011;16985;50.814;8.530;2023-11-21T10:07:25;21.10;;;9.52;;
30173;SDS011;16985;50.814;8.530;2023-11-21T10:09:52;15.65;;;8.25;;
30173;SDS011;16985;50.814;8.530;2023-11-21T10:12:19;20.15;;;8.30;;
30173;SDS011;16985;50.814;8.530;2023-11-21T10:14:48;18.00;;;8.65;;
30173;SDS011;16985;50.814;8.530;2023-11-21T10:17:14;20.85;;;8.88;;
30173;SDS011;16985;50.814;8.530;2023-11-21T10:19:43;12.85;;;8.15;;
30173;SDS011;16985;50.814;8.530;2023-11-21T10:22:15;14.40;;;8.48;;
30173;SDS011;16985;50.814;8.530;2023-11-21T10:24:42;19.23;;;8.70;;
30173;SDS011;16985;50.814;8.530;2023-11-21T10:27:08;18.33;;;8.82;;
30173;SDS011;16985;50.814;8.530;2023-11-21T10:29:34;14.93;;;8.77;;
30173;SDS011;16985;50.814;8.530;2023-11-21T10:32:04;18.10;;;8.75;;
30173;SDS011;16985;50.814;8.530;2023-11-21T10:34:30;19.67;;;8.68;;
30173;SDS011;16985;50.814;8.530;2023-11-21T10:36:57;20.58;;;9.20;;
30173;SDS011;16985;50.814;8.530;2023-11-21T10:39:23;17.58;;;8.75;;
30173;SDS011;16985;50.814;8.530;2023-11-21T10:41:55;18.60;;;9.20;;
30173;SDS011;16985;50.814;8.530;2023-11-21T10:44:21;12.40;;;8.45;;
30173;SDS011;16985;50.814;8.530;2023-11-21T10:46:51;17.88;;;9.15;;
30173;SDS011;16985;50.814;8.530;2023-11-21T10:49:22;15.70;;;8.65;;
30173;SDS011;16985;50.814;8.530;2023-11-21T10:51:50;16.90;;;9.25;;
30173;SDS011;16985;50.814;8.530;2023-11-21T10:54:22;17.48;;;9.40;;
30173;SDS011;16985;50.814;8.530;2023-11-21T10:56:51;22.80;;;9.57;;
30173;SDS011;16985;50.814;8.530;2023-11-21T10:59:28;16.85;;;9.07;;
30173;SDS011;16985;50.814;8.530;2023-11-21T11:01:57;18.98;;;8.98;;
30173;SDS011;16985;50.814;8.530;2023-11-21T11:04:27;16.02;;;8.32;;
30173;SDS011;16985;50.814;8.530;2023-11-21T11:07:03;19.15;;;9.77;;
30173;SDS011;16985;50.814;8.530;2023-11-21T11:09:30;17.25;;;8.55;;
30173;SDS011;16985;50.814;8.530;2023-11-21T11:11:59;22.98;;;9.30;;
30173;SDS011;16985;50.814;8.530;2023-11-21T11:14:29;23.48;;;9.30;;
30173;SDS011;16985;50.814;8.530;2023-11-21T11:16:57;15.68;;;8.95;;
30173;SDS011;16985;50.814;8.530;2023-11-21T11:19:25;14.75;;;8.75;;
30173;SDS011;16985;50.814;8.530;2023-11-21T11:33:21;20.10;;;9.38;;
30173;SDS011;16985;50.814;8.530;2023-11-21T11:38:52;19.23;;;8.80;;
30173;SDS011;16985;50.814;8.530;2023-11-21T11:41:25;14.65;;;8.38;;
30173;SDS011;16985;50.814;8.530;2023-11-21T11:44:02;14.27;;;8.55;;
30173;SDS011;16985;50.814;8.530;2023-11-21T11:46:44;16.13;;;9.35;;
30173;SDS011;16985;50.814;8.530;2023-11-21T11:49:29;27.45;;;8.95;;
30173;SDS011;16985;50.814;8.530;2023-11-21T11:55:01;30.05;;;7.85;;
30173;SDS011;16985;50.814;8.530;2023-11-21T11:57:30;14.98;;;7.57;;
30173;SDS011;16985;50.814;8.530;2023-11-21T12:00:15;11.32;;;7.63;;
30173;SDS011;16985;50.814;8.530;2023-11-21T12:03:00;13.95;;;7.10;;
30173;SDS011;16985;50.814;8.530;2023-11-21T12:05:28;10.32;;;6.95;;
30173;SDS011;16985;50.814;8.530;2023-11-21T12:08:01;12.02;;;6.85;;
30173;SDS011;16985;50.814;8.530;2023-11-21T12:10:31;11.73;;;6.70;;
30173;SDS011;16985;50.814;8.530;2023-11-21T12:13:04;14.75;;;7.00;;
30173;SDS011;16985;50.814;8.530;2023-11-21T12:15:35;13.73;;;7.95;;
30173;SDS011;16985;50.814;8.530;2023-11-21T12:18:02;12.98;;;7.07;;
30173;SDS011;16985;50.814;8.530;2023-11-21T12:20:29;14.93;;;8.60;;
30173;SDS011;16985;50.814;8.530;2023-11-21T12:22:59;17.88;;;7.72;;
30173;SDS011;16985;50.814;8.530;2023-11-21T12:25:26;22.25;;;7.80;;
30173;SDS011;16985;50.814;8.530;2023-11-21T12:27:55;15.52;;;7.38;;
30173;SDS011;16985;50.814;8.530;2023-11-21T12:30:23;13.63;;;6.75;;
30173;SDS011;16985;50.814;8.530;2023-11-21T12:32:54;14.63;;;8.13;;
30173;SDS011;16985;50.814;8.530;2023-11-21T12:35:25;13.00;;;6.53;;
30173;SDS011;16985;50.814;8.530;2023-11-21T12:37:53;13.90;;;7.10;;
30173;SDS011;16985;50.814;8.530;2023-11-21T12:40:22;11.07;;;7.07;;
30173;SDS011;16985;50.814;8.530;2023-11-21T12:42:51;11.18;;;6.72;;
30173;SDS011;16985;50.814;8.530;2023-11-21T12:45:19;15.88;;;7.95;;
30173;SDS011;16985;50.814;8.530;2023-11-21T12:47:48;12.23;;;6.40;;
30173;SDS011;16985;50.814;8.530;2023-11-21T12:50:19;10.45;;;6.63;;
30173;SDS011;16985;50.814;8.530;2023-11-21T12:52:52;10.18;;;6.65;;
30173;SDS011;16985;50.814;8.530;2023-11-21T12:55:22;10.60;;;6.75;;
30173;SDS011;16985;50.814;8.530;2023-11-21T12:57:49;13.07;;;6.57;;
30173;SDS011;16985;50.814;8.530;2023-11-21T13:00:17;13.27;;;7.00;;
30173;SDS011;16985;50.814;8.530;2023-11-21T13:02:54;9.13;;;6.53;;
30173;SDS011;16985;50.814;8.530;2023-11-21T13:05:25;10.13;;;6.38;;
30173;SDS011;16985;50.814;8.530;2023-11-21T13:08:01;12.15;;;6.43;;
30173;SDS011;16985;50.814;8.530;2023-11-21T13:10:30;8.23;;;5.45;;
30173;SDS011;16985;50.814;8.530;2023-11-21T13:12:57;11.73;;;6.45;;
30173;SDS011;16985;50.814;8.530;2023-11-21T13:15:25;9.65;;;6.05;;
30173;SDS011;16985;50.814;8.530;2023-11-21T13:17:52;16.40;;;6.13;;
30173;SDS011;16985;50.814;8.530;2023-11-21T13:20:19;8.07;;;4.93;;
30173;SDS011;16985;50.814;8.530;2023-11-21T13:25:14;8.77;;;5.72;;
30173;SDS011;16985;50.814;8.530;2023-11-21T13:27:45;10.98;;;5.93;;
30173;SDS011;16985;50.814;8.530;2023-11-21T13:30:12;9.27;;;5.80;;
30173;SDS011;16985;50.814;8.530;2023-11-21T13:32:43;7.88;;;5.22;;
30173;SDS011;16985;50.814;8.530;2023-11-21T13:35:11;14.02;;;5.32;;
30173;SDS011;16985;50.814;8.530;2023-11-21T13:37:48;7.65;;;4.35;;
30173;SDS011;16985;50.814;8.530;2023-11-21T13:40:21;7.45;;;5.03;;
30173;SDS011;16985;50.814;8.530;2023-11-21T13:42:54;8.40;;;4.75;;
30173;SDS011;16985;50.814;8.530;2023-11-21T13:45:24;10.25;;;5.50;;
30173;SDS011;16985;50.814;8.530;2023-11-21T13:47:53;9.10;;;4.72;;
30173;SDS011;16985;50.814;8.530;2023-11-21T13:50:23;11.55;;;5.43;;
30173;SDS011;16985;50.814;8.530;2023-11-21T13:52:57;12.75;;;5.85;;
30173;SDS011;16985;50.814;8.530;2023-11-21T13:55:29;11.38;;;4.85;;
30173;SDS011;16985;50.814;8.530;2023-11-21T13:57:55;11.05;;;4.97;;
30173;SDS011;16985;50.814;8.530;2023-11-21T14:00:21;6.80;;;4.72;;
30173;SDS011;16985;50.814;8.530;2023-11-21T14:03:07;9.65;;;4.80;;
30173;SDS011;16985;50.814;8.530;2023-11-21T14:05:42;9.18;;;3.97;;
30173;SDS011;16985;50.814;8.530;2023-11-21T14:08:11;7.07;;;4.38;;
30173;SDS011;16985;50.814;8.530;2023-11-21T14:10:41;5.75;;;3.97;;
30173;SDS011;16985;50.814;8.530;2023-11-21T14:13:09;8.20;;;4.57;;
30173;SDS011;16985;50.814;8.530;2023-11-21T14:15:41;10.73;;;4.70;;
30173;SDS011;16985;50.814;8.530;2023-11-21T14:18:11;13.48;;;5.68;;
30173;SDS011;16985;50.814;8.530;2023-11-21T14:20:42;8.48;;;4.60;;
30173;SDS011;16985;50.814;8.530;2023-11-21T14:23:10;9.48;;;5.13;;
30173;SDS011;16985;50.814;8.530;2023-11-21T14:25:37;9.82;;;4.25;;
30173;SDS011;16985;50.814;8.530;2023-11-21T14:28:04;8.95;;;4.53;;
30173;SDS011;16985;50.814;8.530;2023-11-21T14:30:32;9.48;;;4.32;;
30173;SDS011;16985;50.814;8.530;2023-11-21T14:33:00;4.82;;;3.60;;
30173;SDS011;16985;50.814;8.530;2023-11-21T14:35:27;6.88;;;4.43;;
30173;SDS011;16985;50.814;8.530;2023-11-21T14:37:58;5.85;;;3.55;;
30173;SDS011;16985;50.814;8.530;2023-11-21T14:40:25;6.80;;;3.40;;
30173;SDS011;16985;50.814;8.530;2023-11-21T14:42:56;5.32;;;3.40;;
30173;SDS011;16985;50.814;8.530;2023-11-21T14:45:22;6.85;;;3.10;;
30173;SDS011;16985;50.814;8.530;2023-11-21T14:47:51;4.82;;;2.75;;
30173;SDS011;16985;50.814;8.530;2023-11-21T14:50:30;4.50;;;2.42;;
30173;SDS011;16985;50.814;8.530;2023-11-21T14:53:11;5.70;;;2.90;;
30173;SDS011;16985;50.814;8.530;2023-11-21T14:55:38;4.40;;;2.75;;
30173;SDS011;16985;50.814;8.530;2023-11-21T14:58:17;5.78;;;3.35;;
30173;SDS011;16985;50.814;8.530;2023-11-21T15:00:54;3.97;;;2.75;;
30173;SDS011;16985;50.814;8.530;2023-11-21T15:03:24;6.25;;;3.30;;
30173;SDS011;16985;50.814;8.530;2023-11-21T15:05:57;5.93;;;3.63;;